createdAt,value
2023-03-02T00:01:42.284Z,99065.56
2023-03-02T00:04:38.607Z,99058.09
2023-03-02T00:07:32.220Z,99000.47
2023-03-02T00:10:17.537Z,99031.72
2023-03-02T00:13:03.293Z,98848.66
2023-03-02T00:16:08.756Z,99024.53
2023-03-02T00:18:54.993Z,99029.13
2023-03-02T00:21:41.192Z,98990.19
2023-03-02T00:24:26.883Z,98998.59
2023-03-02T00:27:12.809Z,99014.28
2023-03-02T00:29:58.560Z,99044.66
2023-03-02T00:32:45.712Z,99038.13
2023-03-02T00:35:31.339Z,98935.06
2023-03-02T00:38:17.248Z,99019.69
2023-03-02T00:41:02.567Z,98859.66
2023-03-02T00:43:48.862Z,99018.69
2023-03-02T00:46:35.244Z,99009.06
2023-03-02T00:49:20.860Z,99002.72
2023-03-02T00:52:06.469Z,98795.28
2023-03-02T00:54:52.205Z,98988.03
2023-03-02T00:57:37.824Z,98795.69
2023-03-02T01:00:24.408Z,98994.19
2023-03-02T01:03:10.209Z,98990.13
2023-03-02T01:05:56.325Z,99024.00
2023-03-02T01:08:41.526Z,99015.25
2023-03-02T01:11:27.243Z,98961.88
2023-03-02T01:14:12.761Z,98774.47
2023-03-02T01:16:58.689Z,98983.75
2023-03-02T01:19:44.614Z,98971.78
2023-03-02T01:22:30.171Z,98956.78
2023-03-02T01:25:16.065Z,98953.31
2023-03-02T01:28:01.652Z,98939.53
2023-03-02T01:30:47.685Z,98977.50
2023-03-02T01:33:33.300Z,98984.91
2023-03-02T01:36:19.588Z,98981.50
2023-03-02T01:39:05.196Z,98978.19
2023-03-02T01:41:52.707Z,98949.19
2023-03-02T01:44:51.231Z,98873.75
2023-03-02T01:47:39.974Z,98963.44
2023-03-02T01:50:32.850Z,98829.22
2023-03-02T01:53:18.745Z,98898.91
2023-03-02T01:56:05.731Z,98715.59
2023-03-02T01:58:54.692Z,98950.13
2023-03-02T02:01:44.364Z,98941.16
2023-03-02T02:04:32.300Z,98962.00
2023-03-02T02:07:18.527Z,98855.88
2023-03-02T02:10:05.292Z,98917.38
2023-03-02T02:12:51.082Z,98895.03
2023-03-02T02:15:38.539Z,98823.66
2023-03-02T02:18:25.964Z,98944.16
2023-03-02T02:21:11.830Z,98951.22
2023-03-02T02:24:22.545Z,98948.03
2023-03-02T02:27:08.442Z,98725.22
2023-03-02T02:29:55.140Z,98927.72
2023-03-02T02:32:43.459Z,98918.88
2023-03-02T02:35:33.340Z,98917.38
2023-03-02T02:38:21.456Z,98943.00
2023-03-02T02:41:16.072Z,98938.72
2023-03-02T02:44:02.591Z,98944.16
2023-03-02T02:46:48.154Z,98960.75
2023-03-02T02:49:40.332Z,98944.69
2023-03-02T02:52:28.848Z,98919.00
2023-03-02T02:55:19.206Z,98704.91
2023-03-02T02:58:21.684Z,98765.47
2023-03-02T03:01:08.329Z,98757.25
2023-03-02T03:03:58.533Z,98731.72
2023-03-02T03:07:13.266Z,98953.25
2023-03-02T03:10:25.812Z,98943.25
2023-03-02T03:13:13.107Z,98914.44
2023-03-02T03:16:01.591Z,98722.78
2023-03-02T03:18:51.552Z,98949.22
2023-03-02T03:21:37.842Z,98947.31
2023-03-02T03:24:27.022Z,98914.28
2023-03-02T03:27:15.737Z,98721.63
2023-03-02T03:30:02.247Z,98811.97
2023-03-02T03:32:50.837Z,98984.34
2023-03-02T03:35:36.999Z,98940.41
2023-03-02T03:38:22.938Z,98913.72
2023-03-02T03:41:09.097Z,98949.91
2023-03-02T03:43:54.978Z,98936.19
2023-03-02T03:46:40.433Z,98944.69
2023-03-02T03:49:26.456Z,98904.88
2023-03-02T03:52:13.679Z,98786.44
2023-03-02T03:55:02.013Z,98933.38
2023-03-02T03:57:48.678Z,98887.63
2023-03-02T04:00:35.432Z,98936.81
2023-03-02T04:03:28.068Z,98938.81
2023-03-02T04:06:19.231Z,98680.41
2023-03-02T04:09:07.233Z,98908.63
2023-03-02T04:11:54.838Z,98865.06
2023-03-02T04:14:40.734Z,98949.50
2023-03-02T04:17:27.745Z,98892.38
2023-03-02T04:20:17.881Z,98955.41
2023-03-02T04:23:07.865Z,98901.34
2023-03-02T04:25:53.669Z,98931.38
2023-03-02T04:28:41.809Z,98912.22
2023-03-02T04:31:28.382Z,98925.34
2023-03-02T04:34:14.842Z,98927.81
2023-03-02T04:37:02.320Z,98716.78
2023-03-02T04:39:51.222Z,98743.31
2023-03-02T04:42:37.218Z,98947.59
2023-03-02T04:45:22.933Z,98964.88
2023-03-02T04:48:08.372Z,98883.03
2023-03-02T04:50:53.890Z,98920.25
2023-03-02T04:53:39.591Z,98871.06
2023-03-02T04:56:25.988Z,98920.41
2023-03-02T04:59:11.642Z,98724.38
2023-03-02T05:02:00.795Z,98917.81
2023-03-02T05:04:46.395Z,98933.34
2023-03-02T05:07:31.918Z,98938.50
2023-03-02T05:10:18.324Z,98923.25
2023-03-02T05:13:05.748Z,98885.28
2023-03-02T05:15:51.913Z,98891.59
2023-03-02T05:18:37.277Z,98714.06
2023-03-02T05:21:22.979Z,98743.66
2023-03-02T05:24:08.479Z,98926.38
2023-03-02T05:26:54.004Z,98824.00
2023-03-02T05:29:39.379Z,98726.63
2023-03-02T05:32:25.035Z,98925.84
2023-03-02T05:35:10.860Z,98923.78
2023-03-02T05:37:56.606Z,98881.13
2023-03-02T05:40:42.641Z,98950.66
2023-03-02T05:43:28.221Z,98939.28
2023-03-02T05:46:13.903Z,98922.31
2023-03-02T05:48:59.048Z,98939.56
2023-03-02T05:51:44.632Z,98740.19
2023-03-02T05:54:30.184Z,98922.78
2023-03-02T05:57:15.503Z,98727.63
2023-03-02T06:00:01.046Z,98933.84
2023-03-02T06:02:46.631Z,98778.63
2023-03-02T06:05:32.739Z,98938.34
2023-03-02T06:08:19.940Z,98953.31
2023-03-02T06:11:05.298Z,98980.34
2023-03-02T06:13:50.853Z,98944.91
2023-03-02T06:16:47.493Z,98957.03
2023-03-02T06:19:58.905Z,98956.13
2023-03-02T06:22:47.130Z,98757.25
2023-03-02T06:25:33.062Z,98983.72
2023-03-02T06:28:20.159Z,98927.28
2023-03-02T06:31:05.632Z,98979.94
2023-03-02T06:33:51.297Z,98989.75
2023-03-02T06:36:40.052Z,98965.81
2023-03-02T06:39:25.776Z,98951.22
2023-03-02T06:42:11.099Z,98992.22
2023-03-02T06:44:56.774Z,98951.78
2023-03-02T06:47:42.177Z,98771.25
2023-03-02T06:50:28.695Z,98923.44
2023-03-02T06:53:17.617Z,98752.69
2023-03-02T06:56:03.658Z,98950.72
2023-03-02T06:58:49.168Z,98945.97
2023-03-02T07:01:36.310Z,98924.13
2023-03-02T07:04:21.921Z,98947.97
2023-03-02T07:07:08.492Z,98946.97
2023-03-02T07:09:54.320Z,98937.50
2023-03-02T07:12:41.210Z,98771.25
2023-03-02T07:15:26.603Z,98942.50
2023-03-02T07:18:12.425Z,98961.13
2023-03-02T07:20:58.122Z,98941.75
2023-03-02T07:23:43.748Z,98914.16
2023-03-02T07:26:29.128Z,98929.50
2023-03-02T07:29:14.493Z,98726.59
2023-03-02T07:32:00.074Z,98724.56
2023-03-02T07:34:45.623Z,98910.53
2023-03-02T07:37:30.975Z,98893.13
2023-03-02T07:40:17.083Z,98924.78
2023-03-02T07:43:02.473Z,98941.50
2023-03-02T07:45:48.081Z,98918.53
2023-03-02T07:48:33.981Z,98751.19
2023-03-02T07:51:26.141Z,98922.72
2023-03-02T07:54:11.597Z,98933.25
2023-03-02T07:56:58.084Z,98926.31
2023-03-02T07:59:44.646Z,98922.22
2023-03-02T08:02:30.931Z,98934.13
2023-03-02T08:05:22.261Z,98925.41
2023-03-02T08:08:08.044Z,98797.25
2023-03-02T08:10:53.672Z,98888.47
2023-03-02T08:13:39.904Z,98728.28
2023-03-02T08:16:26.787Z,98927.53
2023-03-02T08:19:12.875Z,98736.69
2023-03-02T08:21:58.756Z,98939.44
2023-03-02T08:24:48.013Z,98894.59
2023-03-02T08:27:34.353Z,98921.81
2023-03-02T08:30:26.047Z,98925.00
2023-03-02T08:33:13.572Z,98759.72
2023-03-02T08:36:05.351Z,98813.91
2023-03-02T08:38:54.172Z,98912.44
2023-03-02T08:41:39.722Z,98916.59
2023-03-02T08:44:25.003Z,98914.25
2023-03-02T08:47:11.439Z,98770.88
2023-03-02T08:49:57.353Z,98907.91
2023-03-02T08:52:43.687Z,98907.78
2023-03-02T08:55:30.710Z,98763.25
2023-03-02T08:58:16.023Z,98911.22
2023-03-02T09:01:01.686Z,98900.97
2023-03-02T09:03:47.544Z,98897.72
2023-03-02T09:06:44.273Z,98895.66
2023-03-02T09:09:29.721Z,98889.69
2023-03-02T09:12:15.467Z,98910.50
2023-03-02T09:15:01.630Z,98909.03
2023-03-02T09:17:47.153Z,98881.25
2023-03-02T09:20:33.972Z,98867.75
2023-03-02T09:23:20.592Z,98902.81
2023-03-02T09:26:06.127Z,98865.84
2023-03-02T09:28:51.580Z,98713.13
2023-03-02T09:31:38.038Z,98911.56
2023-03-02T09:34:23.990Z,98883.50
2023-03-02T09:37:09.925Z,98868.94
2023-03-02T09:39:55.520Z,98879.50
2023-03-02T09:43:05.831Z,98880.66
2023-03-02T09:45:56.183Z,98871.91
2023-03-02T09:49:18.912Z,98895.50
2023-03-02T09:52:07.589Z,98864.47
2023-03-02T09:54:53.429Z,98716.59
2023-03-02T09:57:39.945Z,98862.78
2023-03-02T10:00:36.686Z,98826.13
2023-03-02T10:03:32.382Z,98852.63
2023-03-02T10:06:19.735Z,98851.59
2023-03-02T10:09:05.357Z,98876.34
2023-03-02T10:12:08.197Z,98844.19
2023-03-02T10:15:04.127Z,98836.38
2023-03-02T10:18:02.213Z,98830.66
2023-03-02T10:20:53.801Z,98835.53
2023-03-02T10:23:42.572Z,98831.19
2023-03-02T10:26:40.718Z,98815.44
2023-03-02T10:29:53.442Z,98826.25
2023-03-02T10:32:46.063Z,98815.56
2023-03-02T10:35:32.530Z,98820.75
2023-03-02T10:38:24.375Z,98809.34
2023-03-02T10:41:18.977Z,98828.19
2023-03-02T10:44:08.184Z,98809.16
2023-03-02T10:46:54.273Z,98844.47
2023-03-02T10:49:43.584Z,98687.03
2023-03-02T10:52:34.921Z,98808.47
2023-03-02T10:55:21.487Z,98802.41
2023-03-02T10:58:34.955Z,98803.28
2023-03-02T11:01:21.739Z,98795.88
2023-03-02T11:04:15.022Z,98668.19
2023-03-02T11:07:31.973Z,98788.81
2023-03-02T11:10:29.991Z,98788.34
2023-03-02T11:13:29.828Z,98792.59
2023-03-02T11:16:18.624Z,98792.97
2023-03-02T11:19:12.095Z,98781.56
2023-03-02T11:22:03.226Z,98779.41
2023-03-02T11:24:55.139Z,98765.69
2023-03-02T11:27:44.232Z,98599.19
2023-03-02T11:30:34.183Z,98750.56
2023-03-02T11:33:29.945Z,98765.56
2023-03-02T11:36:20.756Z,98762.41
2023-03-02T11:39:14.884Z,98582.50
2023-03-02T11:42:00.338Z,98588.81
2023-03-02T11:44:50.307Z,98737.84
2023-03-02T11:47:37.799Z,98744.84
2023-03-02T11:50:23.703Z,98753.19
2023-03-02T11:53:14.867Z,98596.84
2023-03-02T11:56:00.497Z,98749.31
2023-03-02T11:58:52.995Z,98730.81
2023-03-02T12:01:40.328Z,98732.75
2023-03-02T12:04:28.968Z,98764.44
2023-03-02T12:07:19.403Z,98760.03
2023-03-02T12:10:28.582Z,98708.50
2023-03-02T12:13:20.080Z,98723.31
2023-03-02T12:16:20.568Z,98718.91
2023-03-02T12:19:26.293Z,98746.47
2023-03-02T12:22:14.609Z,98721.84
2023-03-02T12:25:20.290Z,98700.19
2023-03-02T12:28:06.026Z,98694.56
2023-03-02T12:31:08.402Z,98717.41
2023-03-02T12:33:54.098Z,98717.00
2023-03-02T12:36:44.063Z,98708.19
2023-03-02T12:40:03.358Z,98711.91
2023-03-02T12:43:01.674Z,98700.13
2023-03-02T12:46:27.994Z,98703.81
2023-03-02T12:49:44.146Z,98690.97
2023-03-02T12:52:35.508Z,98697.63
2023-03-02T12:55:21.139Z,98682.34
2023-03-02T12:58:18.784Z,98565.69
2023-03-02T13:01:05.939Z,98515.69
2023-03-02T13:03:53.601Z,98691.50
2023-03-02T13:06:40.198Z,98670.94
2023-03-02T13:09:26.543Z,98681.97
2023-03-02T13:12:15.253Z,98513.97
2023-03-02T13:15:01.179Z,98666.81
2023-03-02T13:17:55.555Z,98605.97
2023-03-02T13:20:41.185Z,98639.53
2023-03-02T13:23:29.175Z,98653.59
2023-03-02T13:26:34.598Z,98664.47
2023-03-02T13:29:20.736Z,98635.00
2023-03-02T13:32:27.010Z,98647.38
2023-03-02T13:35:24.381Z,98628.84
2023-03-02T13:38:18.460Z,98640.78
2023-03-02T13:41:04.047Z,98610.72
2023-03-02T13:43:49.838Z,98628.63
2023-03-02T13:46:39.199Z,98618.34
2023-03-02T13:49:29.444Z,98617.59
2023-03-02T13:52:29.777Z,98607.84
2023-03-02T13:55:17.623Z,98608.66
2023-03-02T13:58:03.411Z,98616.69
2023-03-02T14:00:50.153Z,98436.09
2023-03-02T14:03:36.042Z,98429.16
2023-03-02T14:06:21.571Z,98422.72
2023-03-02T14:09:07.044Z,98610.63
2023-03-02T14:11:55.431Z,98585.59
2023-03-02T14:14:41.302Z,98598.28
2023-03-02T14:17:28.107Z,98602.00
2023-03-02T14:20:19.631Z,98587.47
2023-03-02T14:23:06.986Z,98590.03
2023-03-02T14:25:55.299Z,98582.84
2023-03-02T14:28:40.901Z,98585.59
2023-03-02T14:31:27.467Z,98585.78
2023-03-02T14:34:18.228Z,98405.38
2023-03-02T14:37:07.069Z,98574.56
2023-03-02T14:39:55.624Z,98571.63
2023-03-02T14:42:41.721Z,98580.09
2023-03-02T14:45:29.270Z,98571.94
2023-03-02T14:48:16.101Z,98582.28
2023-03-02T14:51:04.202Z,98546.16
2023-03-02T14:53:52.615Z,98566.44
2023-03-02T14:56:50.181Z,98433.31
2023-03-02T14:59:35.970Z,98573.44
2023-03-02T15:02:25.982Z,98570.81
2023-03-02T15:05:12.015Z,98581.81
2023-03-02T15:07:58.758Z,98437.34
2023-03-02T15:10:46.785Z,98402.38
2023-03-02T15:13:32.526Z,98570.88
2023-03-02T15:16:18.224Z,98559.22
2023-03-02T15:19:03.918Z,98524.75
2023-03-02T15:21:49.661Z,98569.38
2023-03-02T15:24:35.453Z,98573.63
2023-03-02T15:27:23.074Z,98581.84
2023-03-02T15:30:09.362Z,98406.13
2023-03-02T15:32:54.854Z,98515.16
2023-03-02T15:35:40.971Z,98569.84
2023-03-02T15:38:26.456Z,98558.28
2023-03-02T15:41:13.791Z,98561.72
2023-03-02T15:43:59.289Z,98556.25
2023-03-02T15:46:44.936Z,98566.78
2023-03-02T15:49:32.802Z,98538.22
2023-03-02T15:52:20.121Z,98561.88
2023-03-02T15:55:05.560Z,98559.59
2023-03-02T15:57:51.497Z,98571.63
2023-03-02T16:00:37.939Z,98567.47
2023-03-02T16:03:24.926Z,98588.38
2023-03-02T16:06:10.330Z,98402.53
2023-03-02T16:08:55.949Z,98395.16
2023-03-02T16:11:41.659Z,98571.56
2023-03-02T16:14:27.175Z,98426.97
2023-03-02T16:17:12.734Z,98574.63
2023-03-02T16:19:58.252Z,98595.19
2023-03-02T16:23:01.769Z,98574.63
2023-03-02T16:25:51.085Z,98401.16
2023-03-02T16:28:37.516Z,98577.53
2023-03-02T16:31:26.903Z,98575.97
2023-03-02T16:34:12.942Z,98579.28
2023-03-02T16:37:00.331Z,98407.16
2023-03-02T16:39:45.835Z,98557.13
2023-03-02T16:42:31.644Z,98530.28
2023-03-02T16:45:18.712Z,98586.38
2023-03-02T16:48:05.620Z,98561.56
2023-03-02T16:51:00.126Z,98602.91
2023-03-02T16:53:46.011Z,98592.41
2023-03-02T16:56:31.395Z,98592.81
2023-03-02T16:59:17.266Z,98563.34
2023-03-02T17:02:02.925Z,98611.78
2023-03-02T17:04:48.551Z,98596.16
2023-03-02T17:07:34.110Z,98439.22
2023-03-02T17:10:21.883Z,98388.16
2023-03-02T17:13:08.212Z,98590.84
2023-03-02T17:15:53.867Z,98566.31
2023-03-02T17:18:41.031Z,98561.75
2023-03-02T17:21:27.051Z,98588.69
2023-03-02T17:24:12.852Z,98585.19
2023-03-02T17:26:58.697Z,98396.25
2023-03-02T17:29:44.496Z,98423.47
2023-03-02T17:32:30.083Z,98599.94
2023-03-02T17:35:16.696Z,98595.94
2023-03-02T17:38:03.045Z,98579.66
2023-03-02T17:40:48.705Z,98580.41
2023-03-02T17:43:38.018Z,98578.25
2023-03-02T17:46:26.805Z,98394.38
2023-03-02T17:49:13.315Z,98593.16
2023-03-02T17:51:58.864Z,98434.28
2023-03-02T17:54:44.929Z,98583.06
2023-03-02T17:57:30.678Z,98518.16
2023-03-02T18:00:18.926Z,98583.50
2023-03-02T18:03:06.902Z,98563.38
2023-03-02T18:05:53.139Z,98612.19
2023-03-02T18:08:38.934Z,98589.75
2023-03-02T18:11:25.602Z,98567.59
2023-03-02T18:14:16.823Z,98579.97
2023-03-02T18:17:05.027Z,98416.31
2023-03-02T18:19:50.758Z,98394.16
2023-03-02T18:22:36.187Z,98577.72
2023-03-02T18:25:21.792Z,98576.66
2023-03-02T18:28:07.339Z,98576.97
2023-03-02T18:30:52.788Z,98583.81
2023-03-02T18:33:38.688Z,98578.63
2023-03-02T18:36:24.392Z,98560.53
2023-03-02T18:39:10.672Z,98573.13
2023-03-02T18:41:57.057Z,98405.81
2023-03-02T18:44:44.219Z,98581.34
2023-03-02T18:47:37.693Z,98582.19
2023-03-02T18:50:24.150Z,98391.47
2023-03-02T18:53:12.776Z,98583.16
2023-03-02T18:55:59.745Z,98538.13
2023-03-02T18:58:45.852Z,98551.69
2023-03-02T19:01:32.103Z,98587.50
2023-03-02T19:04:17.517Z,98545.63
2023-03-02T19:07:04.424Z,98577.13
2023-03-02T19:09:54.751Z,98571.66
2023-03-02T19:13:12.955Z,98576.44
2023-03-02T19:16:00.838Z,98576.97
2023-03-02T19:18:46.263Z,98347.78
2023-03-02T19:21:32.391Z,98604.34
2023-03-02T19:24:17.894Z,98370.69
2023-03-02T19:27:04.231Z,98596.53
2023-03-02T19:29:50.406Z,98596.91
2023-03-02T19:32:37.315Z,98580.06
2023-03-02T19:35:26.499Z,98400.69
2023-03-02T19:38:12.825Z,98618.53
2023-03-02T19:41:00.838Z,98531.56
2023-03-02T19:43:46.540Z,98591.06
2023-03-02T19:46:32.241Z,98595.84
2023-03-02T19:49:18.254Z,98518.00
2023-03-02T19:52:05.283Z,98603.03
2023-03-02T19:54:50.939Z,98588.50
2023-03-02T19:57:37.691Z,98584.28
2023-03-02T20:00:23.950Z,98592.66
2023-03-02T20:03:09.909Z,98580.66
2023-03-02T20:05:58.908Z,98582.50
2023-03-02T20:08:48.260Z,98558.34
2023-03-02T20:11:34.739Z,98578.00
2023-03-02T20:14:33.463Z,98552.81
2023-03-02T20:17:19.865Z,98593.28
2023-03-02T20:20:08.249Z,98581.16
2023-03-02T20:22:53.985Z,98563.56
2023-03-02T20:25:39.416Z,98586.63
2023-03-02T20:28:25.542Z,98582.00
2023-03-02T20:31:13.146Z,98569.66
2023-03-02T20:33:59.272Z,98574.09
2023-03-02T20:36:45.835Z,98560.53
2023-03-02T20:39:35.443Z,98573.66
2023-03-02T20:42:21.540Z,98562.28
2023-03-02T20:45:09.304Z,98522.72
2023-03-02T20:47:57.147Z,98562.22
2023-03-02T20:50:43.232Z,98344.88
2023-03-02T20:53:29.023Z,98553.22
2023-03-02T20:56:18.021Z,98548.25
2023-03-02T20:59:04.252Z,98518.59
2023-03-02T21:01:51.050Z,98543.69
2023-03-02T21:04:36.586Z,98379.16
2023-03-02T21:07:22.028Z,98386.78
2023-03-02T21:10:09.746Z,98531.84
2023-03-02T21:12:55.587Z,98243.06
2023-03-02T21:15:41.207Z,98518.97
2023-03-02T21:18:27.341Z,98517.47
2023-03-02T21:21:13.454Z,98512.28
2023-03-02T21:24:00.267Z,98509.13
2023-03-02T21:26:48.040Z,98290.22
2023-03-02T21:29:33.712Z,98508.88
2023-03-02T21:32:19.265Z,98508.19
2023-03-02T21:35:04.889Z,98487.75
2023-03-02T21:37:53.716Z,98504.31
2023-03-02T21:40:45.805Z,98488.44
2023-03-02T21:43:31.401Z,98359.56
2023-03-02T21:46:21.866Z,98466.63
2023-03-02T21:49:07.602Z,98497.06
2023-03-02T21:51:53.209Z,98485.19
2023-03-02T21:54:38.702Z,98516.47
2023-03-02T21:57:24.285Z,98508.03
2023-03-02T22:00:18.487Z,98484.00
2023-03-02T22:03:04.201Z,98333.00
2023-03-02T22:05:49.988Z,98478.78
2023-03-02T22:08:37.513Z,98482.22
2023-03-02T22:11:25.666Z,98477.03
2023-03-02T22:14:13.808Z,98477.28
2023-03-02T22:16:59.458Z,98292.47
2023-03-02T22:19:45.670Z,98488.19
2023-03-02T22:22:31.484Z,98475.25
2023-03-02T22:25:18.671Z,98470.00
2023-03-02T22:28:22.598Z,98460.34
2023-03-02T22:31:18.494Z,98444.50
2023-03-02T22:34:13.220Z,98415.84
2023-03-02T22:37:09.641Z,98472.03
2023-03-02T22:40:00.830Z,98456.91
2023-03-02T22:42:46.343Z,98432.47
2023-03-02T22:45:31.784Z,98262.00
2023-03-02T22:48:20.147Z,98442.31
2023-03-02T22:51:22.236Z,98486.66
2023-03-02T22:54:18.789Z,98418.78
2023-03-02T22:57:04.035Z,98448.69
2023-03-02T22:59:49.698Z,98474.25
2023-03-02T23:02:40.502Z,98407.38
2023-03-02T23:05:34.639Z,98436.03
2023-03-02T23:08:30.250Z,98456.84
2023-03-02T23:11:18.959Z,98424.06
2023-03-02T23:14:29.354Z,98406.09
2023-03-02T23:17:20.989Z,98415.47
2023-03-02T23:20:10.169Z,98445.22
2023-03-02T23:22:56.211Z,98407.31
2023-03-02T23:25:41.973Z,98431.19
2023-03-02T23:28:27.427Z,98401.47
2023-03-02T23:31:13.449Z,98397.81
2023-03-02T23:33:59.430Z,98309.09
2023-03-02T23:36:44.990Z,98434.47
2023-03-02T23:39:30.398Z,98401.31
2023-03-02T23:42:15.725Z,98239.25
2023-03-02T23:45:01.229Z,98209.88
2023-03-02T23:47:46.645Z,98390.69
2023-03-02T23:50:32.143Z,98207.94
2023-03-02T23:53:17.692Z,98406.75
2023-03-02T23:56:03.377Z,98392.63
2023-03-02T23:58:48.953Z,98434.34
